Time,TemperatureF,DewpointF,PressureIn,WindDirection,WindDirectionDegrees,WindSpeedMPH,WindSpeedGustMPH,Humidity,HourlyPrecipIn,Conditions,Clouds,dailyrainin,SoftwareType,DateUTC
2013-02-01 00:17:00,28.9,10.3,29.83,WSW,246,5.4,10.5,45,0.00,,---,0.00,VWS V12.08,2013-02-01 05:17:00,
2013-02-01 00:37:00,28.6,10.0,29.83,WSW,253,2.7,8.3,45,0.00,,---,0.00,VWS V12.08,2013-02-01 05:37:00,
2013-02-01 00:57:00,28.6,10.0,29.83,West,269,3.6,8.7,45,0.00,,---,0.00,VWS V12.08,2013-02-01 05:57:00,
2013-02-01 01:17:00,28.6,10.0,29.83,WNW,286,6.3,10.5,45,0.00,,---,0.00,VWS V12.08,2013-02-01 06:17:00,
2013-02-01 01:37:00,28.6,10.0,29.83,WSW,253,5.4,8.3,45,0.00,,---,0.00,VWS V12.08,2013-02-01 06:37:00,
2013-02-01 01:57:00,27.9,9.3,29.83,West,260,3.6,8.1,45,0.00,,---,0.00,VWS V12.08,2013-02-01 06:57:00,
2013-02-01 02:17:00,27.7,9.2,29.83,WSW,254,2.7,6.3,45,0.00,,---,0.00,VWS V12.08,2013-02-01 07:17:00,
2013-02-01 02:37:00,27.5,9.0,29.83,South,187,4.9,8.1,45,0.00,,---,0.00,VWS V12.08,2013-02-01 07:37:00,
2013-02-01 02:57:00,27.0,8.5,29.83,SW,232,0.0,6.3,45,0.00,,---,0.00,VWS V12.08,2013-02-01 07:57:00,
2013-02-01 03:17:00,27.0,8.5,29.83,SW,223,0.0,4.0,45,0.00,,---,0.00,VWS V12.08,2013-02-01 08:17:00,
2013-02-01 03:37:00,27.0,8.5,29.83,WSW,256,0.0,4.9,45,0.00,,---,0.00,VWS V12.08,2013-02-01 08:37:00,
2013-02-01 03:57:00,27.1,8.7,29.83,West,259,5.8,6.3,45,0.00,,---,0.00,VWS V12.08,2013-02-01 08:57:00,
2013-02-01 04:17:00,27.9,9.3,29.83,West,279,0.0,7.6,45,0.00,,---,0.00,VWS V12.08,2013-02-01 09:17:00,
2013-02-01 04:37:00,28.0,9.5,29.83,WSW,237,3.6,5.8,45,0.00,,---,0.00,VWS V12.08,2013-02-01 09:37:00,
2013-02-01 04:57:00,28.0,9.5,29.83,WNW,300,3.6,5.4,45,0.00,,---,0.00,VWS V12.08,2013-02-01 09:57:00,
2013-02-01 05:17:00,27.9,9.3,29.83,NW,306,0.0,4.0,45,0.00,,---,0.00,VWS V12.08,2013-02-01 10:17:00,
2013-02-01 05:37:00,27.9,9.3,29.83,West,277,0.0,0.0,45,0.00,,---,0.00,VWS V12.08,2013-02-01 10:37:00,
2013-02-01 05:57:00,28.0,9.5,29.83,West,277,0.0,0.0,45,0.00,,---,0.00,VWS V12.08,2013-02-01 10:57:00,
2013-02-01 06:17:00,28.2,9.7,29.83,WNW,291,0.0,0.0,45,0.00,,---,0.00,VWS V12.08,2013-02-01 11:17:00,
2013-02-01 06:37:00,28.2,9.7,29.86,NW,321,0.0,0.0,45,0.00,,---,0.00,VWS V12.08,2013-02-01 11:37:00,
2013-02-01 06:57:00,28.0,9.5,29.83,WNW,288,2.7,5.8,45,0.00,,---,0.00,VWS V12.08,2013-02-01 11:57:00,
2013-02-01 07:17:00,28.4,9.8,29.83,WSW,251,3.6,5.8,45,0.00,,---,0.00,VWS V12.08,2013-02-01 12:17:00,
2013-02-01 07:37:00,28.6,10.0,29.83,NW,317,3.1,8.1,45,0.00,,---,0.00,VWS V12.08,2013-02-01 12:37:00,
2013-02-01 07:57:00,28.9,10.3,29.86,West,280,3.6,8.1,45,0.00,,---,0.00,VWS V12.08,2013-02-01 12:57:00,
2013-02-01 08:17:00,29.3,10.7,29.86,West,279,4.0,8.1,45,0.00,,---,0.00,VWS V12.08,2013-02-01 13:17:00,
2013-02-01 08:37:00,29.3,10.7,29.86,West,276,7.6,12.8,45,0.00,,---,0.00,VWS V12.08,2013-02-01 13:37:00,
2013-02-01 08:57:00,28.8,10.2,29.89,West,279,8.3,17.4,45,0.00,,---,0.00,VWS V12.08,2013-02-01 13:57:00,
2013-02-01 09:17:00,27.7,9.7,29.89,North,357,5.8,15.4,46,0.00,,---,0.00,VWS V12.08,2013-02-01 14:17:00,
2013-02-01 09:37:00,25.3,8.1,29.92,West,275,12.3,15.0,47,0.00,,---,0.00,VWS V12.08,2013-02-01 14:37:00,
2013-02-01 09:57:00,26.6,8.7,29.92,NW,318,6.3,14.5,46,0.00,,---,0.00,VWS V12.08,2013-02-01 14:57:00,
2013-02-01 10:17:00,27.9,9.3,29.92,West,260,10.5,15.0,45,0.00,,---,0.00,VWS V12.08,2013-02-01 15:17:00,
2013-02-01 10:37:00,28.0,9.5,29.92,West,275,2.7,18.3,45,0.00,,---,0.00,VWS V12.08,2013-02-01 15:37:00,
2013-02-01 10:57:00,28.4,9.8,29.92,West,278,6.3,15.0,45,0.00,,---,0.00,VWS V12.08,2013-02-01 15:57:00,
2013-02-01 11:17:00,28.2,9.7,29.92,West,280,4.9,15.0,45,0.00,,---,0.00,VWS V12.08,2013-02-01 16:17:00,
2013-02-01 11:37:00,28.6,10.0,29.92,West,260,8.3,18.8,45,0.00,,---,0.00,VWS V12.08,2013-02-01 16:37:00,
2013-02-01 11:57:00,28.8,10.2,29.95,WSW,254,8.1,19.2,45,0.00,,---,0.00,VWS V12.08,2013-02-01 16:57:00,
2013-02-01 12:17:00,28.8,10.2,29.95,WNW,303,15.4,18.3,45,0.00,,---,0.00,VWS V12.08,2013-02-01 17:17:00,
2013-02-01 12:37:00,28.6,10.0,29.95,West,267,7.6,19.7,45,0.00,,---,0.00,VWS V12.08,2013-02-01 17:37:00,
2013-02-01 12:57:00,30.9,12.1,29.95,West,276,6.3,19.7,45,0.00,,---,0.00,VWS V12.08,2013-02-01 17:57:00,
2013-02-01 13:17:00,29.1,10.5,29.98,WNW,300,10.5,19.7,45,0.00,,---,0.00,VWS V12.08,2013-02-01 18:17:00,
2013-02-01 13:37:00,28.9,10.3,29.98,West,264,13.6,18.3,45,0.00,,---,0.00,VWS V12.08,2013-02-01 18:37:00,
2013-02-01 13:57:00,28.8,10.2,29.98,NW,313,20.1,20.1,45,0.00,,---,0.00,VWS V12.08,2013-02-01 18:57:00,
2013-02-01 14:17:00,30.2,11.5,29.98,WNW,301,7.6,20.1,45,0.00,,---,0.00,VWS V12.08,2013-02-01 19:17:00,
2013-02-01 14:37:00,29.5,10.8,30.01,WNW,299,5.8,17.9,45,0.00,,---,0.00,VWS V12.08,2013-02-01 19:37:00,
2013-02-01 14:57:00,29.3,10.7,30.01,North,357,10.5,21.0,45,0.00,,---,0.00,VWS V12.08,2013-02-01 19:57:00,
2013-02-01 15:17:00,29.7,11.0,30.01,NW,320,8.1,15.0,45,0.00,,---,0.00,VWS V12.08,2013-02-01 20:17:00,
2013-02-01 15:37:00,29.5,10.8,30.04,NW,310,13.2,21.5,45,0.00,,---,0.00,VWS V12.08,2013-02-01 20:37:00,
2013-02-01 15:57:00,28.6,10.0,30.04,WSW,256,11.4,22.4,45,0.00,,---,0.00,VWS V12.08,2013-02-01 20:57:00,
2013-02-01 16:17:00,28.6,10.0,30.07,NW,325,5.4,18.3,45,0.00,,---,0.00,VWS V12.08,2013-02-01 21:17:00,
2013-02-01 16:37:00,28.4,9.8,30.07,NW,310,10.1,17.4,45,0.00,,---,0.00,VWS V12.08,2013-02-01 21:37:00,
2013-02-01 16:57:00,27.3,8.8,30.07,West,261,4.9,17.4,45,0.00,,---,0.00,VWS V12.08,2013-02-01 21:57:00,
2013-02-01 17:17:00,26.8,8.4,30.10,WNW,288,5.8,20.1,45,0.00,,---,0.00,VWS V12.08,2013-02-01 22:17:00,
2013-02-01 17:37:00,26.4,8.6,30.10,WNW,301,11.0,13.2,46,0.00,,---,0.00,VWS V12.08,2013-02-01 22:37:00,
2013-02-01 17:57:00,26.2,8.4,30.13,West,265,8.1,15.4,46,0.00,,---,0.00,VWS V12.08,2013-02-01 22:57:00,
2013-02-01 18:17:00,25.7,7.9,30.13,West,261,5.8,17.9,46,0.00,,---,0.00,VWS V12.08,2013-02-01 23:17:00,
2013-02-01 18:37:00,25.3,7.6,30.13,SW,236,5.4,18.3,46,0.00,,---,0.00,VWS V12.08,2013-02-01 23:37:00,
2013-02-01 18:57:00,25.2,7.4,30.16,West,280,5.4,17.0,46,0.00,,---,0.00,VWS V12.08,2013-02-01 23:57:00,
2013-02-01 19:17:00,24.8,7.1,30.16,West,269,5.4,13.2,46,0.00,,---,0.00,VWS V12.08,2013-02-02 00:17:00,
2013-02-01 19:37:00,24.4,6.7,30.19,West,277,8.1,11.0,46,0.00,,---,0.00,VWS V12.08,2013-02-02 00:37:00,
2013-02-01 19:57:00,24.1,6.4,30.19,West,273,5.4,11.4,46,0.00,,---,0.00,VWS V12.08,2013-02-02 00:57:00,
2013-02-01 20:17:00,23.9,6.2,30.19,WSW,248,3.6,16.8,46,0.00,,---,0.00,VWS V12.08,2013-02-02 01:17:00,
2013-02-01 20:37:00,23.7,6.1,30.22,NW,304,9.6,15.4,46,0.00,,---,0.00,VWS V12.08,2013-02-02 01:37:00,
2013-02-01 20:57:00,23.4,5.7,30.22,NW,316,6.3,13.2,46,0.00,,---,0.00,VWS V12.08,2013-02-02 01:57:00,
2013-02-01 21:17:00,23.2,5.6,30.22,WNW,290,8.7,12.8,46,0.00,,---,0.00,VWS V12.08,2013-02-02 02:17:00,
2013-02-01 21:37:00,23.0,5.9,30.25,West,276,5.8,12.8,47,0.00,,---,0.00,VWS V12.08,2013-02-02 02:37:00,
2013-02-01 21:57:00,22.8,5.8,30.25,WNW,283,6.3,11.0,47,0.00,,---,0.00,VWS V12.08,2013-02-02 02:57:00,
2013-02-01 22:17:00,22.5,5.4,30.25,NNW,339,8.3,14.5,47,0.00,,---,0.00,VWS V12.08,2013-02-02 03:17:00,
2013-02-01 22:37:00,22.3,5.3,30.25,West,265,4.0,12.8,47,0.00,,---,0.00,VWS V12.08,2013-02-02 03:37:00,
2013-02-01 22:57:00,22.1,5.1,30.28,West,259,3.1,11.0,47,0.00,,---,0.00,VWS V12.08,2013-02-02 03:57:00,
2013-02-01 23:17:00,21.9,4.9,30.28,WSW,257,3.1,8.3,47,0.00,,---,0.00,VWS V12.08,2013-02-02 04:17:00,
2013-02-01 23:37:00,21.7,4.8,30.28,WNW,301,5.8,12.8,47,0.00,,---,0.00,VWS V12.08,2013-02-02 04:37:00,
2013-02-01 23:57:00,21.4,4.4,30.28,WNW,287,5.8,9.6,47,0.00,,---,0.00,VWS V12.08,2013-02-02 04:57:00,